Flight Track Log - Related Links

Times and Time Zones

All times are in EDT time to prevent confusion due to time zone crossing. See the UCA3597 flight status page for this flight to view local times or setup timezone preferences in your user account.

Time Position Orientation Groundspeed Altitude Reporting Facility
EDT Latitude Longitude Course Direction KTS MPH feet Rate Location/Type
Thu 10:53:37 PM 42.1558 -76.0019 218° Southwest 133 153 4,300  Level New York Center
Thu 10:54:38 PM 42.1164 -76.0436 218° Southwest 164 189 6,300 1,820 Climbing New York Center
Thu 10:55:39 PM 42.0753 -76.0822 215° Southwest 182 209 8,000 1,714 Climbing New York Center
Thu 10:56:37 PM 42.0253 -76.1283 214° Southwest 197 227 9,700 1,525 Climbing New York Center
Thu 10:57:37 PM 41.9839 -76.1697 217° Southwest 202 232 11,000 1,525 Climbing New York Center
Thu 10:58:39 PM 41.9278 -76.2097 208° Southwest 207 238 12,800 1,600 Climbing New York Center
Thu 10:59:37 PM 41.8722 -76.2442 205° Southwest 212 244 14,200 1,462 Climbing New York Center
Thu 11:00:38 PM 41.8186 -76.2786 206° Southwest 218 251 15,700 885 Climbing New York Center
Thu 11:01:39 PM 41.7628 -76.3103 203° Southwest 227 261 16,000 149 Climbing New York Center
Thu 11:02:39 PM 41.6922 -76.3517 204° Southwest 256 295 16,000 -51 Level New York Center
Thu 11:03:37 PM 41.6150 -76.3978 204° Southwest 276 318 15,900 -50 Descending New York Center
Thu 11:04:38 PM 41.5444 -76.4392 204° Southwest 281 323 15,900  Level New York Center
Thu 11:05:38 PM 41.4758 -76.4803 204° Southwest 281 323 15,900  Level New York Center
Thu 11:06:40 PM 41.4094 -76.5189 204° Southwest 287 330 15,900  Level New York Center
Thu 11:07:37 PM 41.3322 -76.5650 204° Southwest 287 330 15,900  Level New York Center
Thu 11:08:40 PM 41.2611 -76.6086 205° Southwest 287 330 15,900  Level New York Center
Thu 11:09:38 PM 41.1883 -76.6492 203° Southwest 287 330 15,900  Level New York Center
Thu 11:10:39 PM 41.1194 -76.6928 205° Southwest 287 330 15,900  Level New York Center
Thu 11:11:40 PM 41.0467 -76.7358 204° Southwest 287 330 15,900  Level New York Center
Thu 11:12:38 PM 40.9758 -76.7764 203° Southwest 287 330 15,900  Level New York Center
Thu 11:13:37 PM 40.9047 -76.8194 205° Southwest 287 330 15,900  Level New York Center
Thu 11:14:39 PM 40.8425 -76.8553 204° Southwest 287 330 15,900  Level New York Center
Thu 11:15:40 PM 40.7592 -76.8972 201° Southwest 294 338 15,900  Level New York Center
Thu 11:16:39 PM 40.6914 -76.9183 193° South 294 338 15,900  Level New York Center
Thu 11:17:37 PM 40.6067 -76.9436 193° South 287 330 15,900  Level New York Center
Thu 11:18:38 PM 40.5367 -76.9647 193° South 282 325 15,900  Level New York Center
Thu 11:19:37 PM 40.4519 -76.9925 194° South 287 330 15,900  Level New York Center
Thu 11:20:38 PM 40.3800 -77.0133 192° South 287 330 15,900  Level New York Center
Thu 11:21:38 PM 40.2972 -77.0414 194° South 287 330 15,900 -246 Level New York Center
Thu 11:22:40 PM 40.2250 -77.0619 192° South 287 330 15,400 -793 Descending New York Center
Thu 11:23:39 PM 40.1339 -77.0889 193° South 293 337 14,300 -1,050 Descending New York Center
Thu 11:26:00 PM 39.9500 -77.1500 194° South 287 330 11,900 -1,015 Descending Potomac TRACON
Thu 11:26:54 PM 39.8833 -77.1667 191° South 283 326 11,000 -1,000 Descending Potomac TRACON
Thu 11:27:54 PM 39.8000 -77.2000 197° South 282 325 10,000 -1,000 Descending Potomac TRACON
Thu 11:28:48 PM 39.7333 -77.2333 201° Southwest 275 316 9,100 -1,000 Descending Potomac TRACON
Thu 11:29:48 PM 39.6667 -77.2667 201° Southwest 263 303 8,100 -1,000 Descending Potomac TRACON
Thu 11:30:54 PM 39.5833 -77.3000 197° South 251 289 7,000 -1,000 Descending Potomac TRACON
Thu 11:31:54 PM 39.5333 -77.3167 194° South 251 289 6,000 -550 Descending Potomac TRACON
Thu 11:32:54 PM 39.4667 -77.3500 201° Southwest 245 282 5,900 -50 Descending Potomac TRACON
Thu 11:33:54 PM 39.4000 -77.4000 210° Southwest 247 284 5,900 -500 Level Potomac TRACON
Thu 11:34:54 PM 39.3500 -77.4500 218° Southwest 253 291 4,900 -900 Descending Potomac TRACON
Thu 11:35:54 PM 39.2833 -77.4500 180° South 245 282 4,100 -800 Descending Potomac TRACON
Thu 11:36:54 PM 39.2167 -77.4500 180° South 243 280 3,300 -632 Descending Potomac TRACON
Thu 11:37:48 PM 39.1500 -77.4500 180° South 213 245 2,900 -300 Descending Potomac TRACON
Thu 11:38:54 PM 39.1000 -77.4500 180° South 167 192 2,700 -524 Descending Potomac TRACON
Thu 11:39:54 PM 39.0500 -77.4500 180° South 160 184 1,800 -750 Descending Potomac TRACON
Thu 11:40:54 PM 39.0167 -77.4667 201° Southwest 121 139 1,200 -579 Descending Potomac TRACON
Thu 11:41:48 PM 39.0000 -77.4667 180° South 107 123 700 -556 Descending Potomac TRACON

Login

Don't have an account? Register now (free) for customized features, flight alerts, and more!